createdAt,value
2018-08-22T00:00:37.851Z,2.90
2018-08-22T00:03:05.073Z,2.43
2018-08-22T00:05:32.244Z,2.57
2018-08-22T00:07:59.407Z,2.60
2018-08-22T00:10:26.576Z,2.67
2018-08-22T00:12:53.731Z,2.97
2018-08-22T00:15:20.939Z,2.50
2018-08-22T00:17:48.079Z,3.17
2018-08-22T00:20:15.411Z,3.30
2018-08-22T00:22:42.708Z,2.63
2018-08-22T00:25:09.907Z,3.40
2018-08-22T00:27:37.136Z,3.03
2018-08-22T00:30:04.963Z,2.93
2018-08-22T00:32:32.196Z,3.93
2018-08-22T00:34:59.420Z,7.40
2018-08-22T00:37:26.607Z,5.90
2018-08-22T00:39:53.832Z,8.33
2018-08-22T00:42:21.088Z,5.77
2018-08-22T00:44:48.291Z,7.60
2018-08-22T00:47:15.496Z,13.63
2018-08-22T00:49:42.687Z,6.70
2018-08-22T00:52:09.893Z,6.80
2018-08-22T00:54:37.144Z,6.53
2018-08-22T00:57:04.315Z,12.67
2018-08-22T00:59:31.507Z,15.10
2018-08-22T01:01:58.739Z,6.70
2018-08-22T01:04:25.976Z,8.47
2018-08-22T01:06:53.257Z,4.20
2018-08-22T01:09:20.455Z,3.57
2018-08-22T01:11:47.660Z,3.60
2018-08-22T01:14:14.827Z,3.43
2018-08-22T01:16:42.039Z,3.63
2018-08-22T01:19:09.293Z,3.20
2018-08-22T01:21:36.503Z,3.40
2018-08-22T01:24:03.719Z,3.70
2018-08-22T01:26:30.880Z,3.20
2018-08-22T01:28:58.659Z,3.53
2018-08-22T01:31:25.867Z,3.70
2018-08-22T01:33:53.089Z,4.40
2018-08-22T01:36:20.292Z,3.17
2018-08-22T01:38:47.504Z,4.50
2018-08-22T01:41:14.724Z,3.70
2018-08-22T01:43:42.111Z,4.23
2018-08-22T01:46:09.316Z,3.80
2018-08-22T01:48:36.528Z,3.80
2018-08-22T01:51:03.844Z,3.10
2018-08-22T01:53:31.052Z,3.73
2018-08-22T01:55:58.239Z,4.60
2018-08-22T01:58:26.032Z,3.80
2018-08-22T02:00:53.171Z,4.07
2018-08-22T02:03:20.398Z,4.20
2018-08-22T02:05:47.621Z,3.47
2018-08-22T02:08:14.840Z,3.73
2018-08-22T02:10:42.063Z,3.93
2018-08-22T02:13:09.284Z,3.83
2018-08-22T02:15:36.495Z,3.70
2018-08-22T02:18:03.659Z,4.07
2018-08-22T02:20:30.828Z,3.80
2018-08-22T02:22:58.007Z,4.37
2018-08-22T02:25:25.261Z,3.97
2018-08-22T02:27:52.532Z,4.03
2018-08-22T02:30:19.762Z,4.10
2018-08-22T02:32:46.916Z,4.40
2018-08-22T02:35:14.072Z,4.60
2018-08-22T02:37:41.249Z,4.13
2018-08-22T02:40:08.956Z,4.23
2018-08-22T02:42:36.189Z,3.87
2018-08-22T02:45:03.418Z,3.77
2018-08-22T02:47:30.633Z,4.23
2018-08-22T02:49:57.776Z,4.40
2018-08-22T02:52:25.016Z,4.00
2018-08-22T02:54:52.150Z,3.77
2018-08-22T02:57:19.328Z,3.77
2018-08-22T02:59:46.508Z,4.77
2018-08-22T03:02:13.676Z,4.20
2018-08-22T03:04:40.940Z,3.60
2018-08-22T03:07:08.144Z,3.80
2018-08-22T03:09:35.416Z,3.50
2018-08-22T03:12:03.135Z,3.80
2018-08-22T03:14:30.389Z,4.60
2018-08-22T03:16:57.624Z,4.03
2018-08-22T03:19:24.808Z,4.50
2018-08-22T03:21:52.025Z,3.87
2018-08-22T03:24:19.168Z,4.10
2018-08-22T03:26:46.373Z,4.37
2018-08-22T03:29:13.596Z,3.90
2018-08-22T03:31:40.749Z,4.20
2018-08-22T03:34:07.985Z,4.43
2018-08-22T03:36:35.188Z,4.37
2018-08-22T03:39:02.562Z,4.07
2018-08-22T03:41:29.838Z,3.87
2018-08-22T03:43:57.098Z,4.33
2018-08-22T03:46:24.335Z,4.90
2018-08-22T03:48:51.484Z,4.20
2018-08-22T03:51:18.641Z,4.73
2018-08-22T03:53:45.839Z,3.50
2018-08-22T03:56:13.092Z,4.23
2018-08-22T03:58:40.344Z,4.63
2018-08-22T04:01:07.612Z,4.00
2018-08-22T04:03:34.851Z,3.80
2018-08-22T04:06:02.093Z,5.10
2018-08-22T04:08:29.284Z,4.07
2018-08-22T04:10:56.487Z,4.20
2018-08-22T04:13:23.760Z,4.30
2018-08-22T04:15:50.987Z,4.40
2018-08-22T04:18:18.232Z,4.23
2018-08-22T04:20:45.538Z,4.60
2018-08-22T04:23:12.780Z,4.17
2018-08-22T04:25:39.993Z,4.30
2018-08-22T04:28:07.199Z,4.60
2018-08-22T04:30:35.031Z,4.00
2018-08-22T04:33:02.251Z,4.37
2018-08-22T04:35:29.529Z,4.17
2018-08-22T04:37:56.712Z,4.50
2018-08-22T04:40:23.960Z,4.40
2018-08-22T04:42:51.176Z,4.10
2018-08-22T04:45:18.412Z,3.70
2018-08-22T04:47:45.665Z,4.40
2018-08-22T04:50:12.843Z,4.20
2018-08-22T04:52:40.044Z,4.80
2018-08-22T04:55:07.303Z,4.30
2018-08-22T04:57:34.573Z,4.67
2018-08-22T05:00:01.776Z,4.43
2018-08-22T05:02:29.015Z,4.60
2018-08-22T05:04:56.218Z,4.20
2018-08-22T05:07:23.584Z,3.80
2018-08-22T05:09:50.746Z,4.37
2018-08-22T05:12:17.943Z,3.83
2018-08-22T05:14:45.164Z,3.70
2018-08-22T05:17:12.360Z,4.27
2018-08-22T05:19:39.510Z,4.30
2018-08-22T05:22:07.561Z,3.93
2018-08-22T05:24:34.788Z,4.50
2018-08-22T05:27:02.919Z,4.53
2018-08-22T05:29:30.269Z,4.90
2018-08-22T05:31:58.304Z,4.30
2018-08-22T05:34:26.000Z,3.87
2018-08-22T05:36:53.244Z,4.67
2018-08-22T05:39:20.484Z,4.70
2018-08-22T05:41:47.760Z,4.40
2018-08-22T05:44:14.921Z,3.57
2018-08-22T05:46:42.082Z,4.90
2018-08-22T05:49:09.340Z,4.20
2018-08-22T05:51:36.536Z,4.30
2018-08-22T05:54:03.732Z,5.63
2018-08-22T05:56:30.915Z,4.20
2018-08-22T05:58:58.180Z,4.57
2018-08-22T06:01:25.428Z,3.70
2018-08-22T06:03:52.802Z,3.87
2018-08-22T06:06:20.000Z,4.10
2018-08-22T06:08:47.780Z,3.70
2018-08-22T06:11:15.004Z,4.40
2018-08-22T06:13:42.272Z,4.67
2018-08-22T06:16:09.492Z,4.57
2018-08-22T06:18:36.649Z,4.13
2018-08-22T06:21:03.863Z,4.00
2018-08-22T06:23:31.168Z,4.00
2018-08-22T06:25:58.388Z,3.50
2018-08-22T06:28:26.174Z,3.80
2018-08-22T06:30:53.404Z,3.80
2018-08-22T06:33:20.632Z,3.53
2018-08-22T06:35:47.932Z,3.50
2018-08-22T06:38:15.103Z,3.30
2018-08-22T06:40:42.366Z,4.30
2018-08-22T06:43:09.557Z,3.97
2018-08-22T06:45:36.756Z,3.20
2018-08-22T06:48:04.072Z,3.93
2018-08-22T06:50:31.337Z,3.97
2018-08-22T06:52:58.525Z,4.30
2018-08-22T06:55:25.720Z,3.50
2018-08-22T06:57:52.980Z,3.90
2018-08-22T07:00:20.255Z,4.20
2018-08-22T07:02:47.490Z,3.20
2018-08-22T07:05:14.706Z,3.63
2018-08-22T07:07:41.914Z,3.83
2018-08-22T07:10:09.112Z,3.70
2018-08-22T07:12:36.319Z,3.50
2018-08-22T07:15:04.101Z,4.03
2018-08-22T07:17:31.284Z,3.97
2018-08-22T07:19:58.536Z,4.00
2018-08-22T07:22:25.753Z,3.80
2018-08-22T07:24:52.930Z,3.73
2018-08-22T07:27:20.164Z,3.97
2018-08-22T07:29:47.533Z,3.60
2018-08-22T07:32:14.688Z,4.13
2018-08-22T07:34:41.886Z,4.27
2018-08-22T07:37:09.112Z,3.67
2018-08-22T07:39:36.325Z,3.87
2018-08-22T07:42:03.548Z,4.07
2018-08-22T07:44:30.758Z,3.80
2018-08-22T07:46:58.007Z,4.40
2018-08-22T07:49:25.258Z,5.40
2018-08-22T07:51:52.501Z,4.10
2018-08-22T07:54:19.997Z,4.07
2018-08-22T07:56:47.240Z,4.40
2018-08-22T07:59:16.756Z,4.17
2018-08-22T08:01:44.057Z,4.30
2018-08-22T08:04:12.117Z,4.40
2018-08-22T08:06:40.225Z,3.80
2018-08-22T08:09:09.695Z,4.43
2018-08-22T08:11:37.032Z,4.63
2018-08-22T08:14:04.240Z,3.90
2018-08-22T08:16:31.549Z,4.30
2018-08-22T08:18:58.750Z,4.40
2018-08-22T08:21:26.009Z,4.70
2018-08-22T08:23:53.236Z,4.53
2018-08-22T08:26:20.656Z,4.27
2018-08-22T08:28:47.928Z,3.97
2018-08-22T08:31:15.120Z,4.23
2018-08-22T08:33:42.369Z,4.60
2018-08-22T08:36:09.718Z,4.63
2018-08-22T08:38:37.054Z,4.67
2018-08-22T08:41:04.320Z,3.83
2018-08-22T08:43:32.169Z,4.50
2018-08-22T08:45:59.420Z,4.53
2018-08-22T08:48:26.676Z,4.40
2018-08-22T08:50:53.881Z,3.93
2018-08-22T08:53:21.124Z,4.90
2018-08-22T08:55:49.031Z,4.83
2018-08-22T08:58:16.218Z,4.60
2018-08-22T09:00:43.485Z,4.47
2018-08-22T09:03:10.687Z,4.43
2018-08-22T09:05:37.886Z,4.30
2018-08-22T09:08:05.134Z,4.30
2018-08-22T09:10:32.455Z,4.67
2018-08-22T09:12:59.617Z,4.50
2018-08-22T09:15:26.889Z,3.83
2018-08-22T09:17:54.173Z,4.33
2018-08-22T09:20:21.542Z,4.60
2018-08-22T09:22:48.799Z,4.27
2018-08-22T09:25:16.036Z,3.87
2018-08-22T09:27:43.336Z,4.50
2018-08-22T09:30:10.630Z,4.60
2018-08-22T09:32:37.792Z,5.07
2018-08-22T09:35:05.125Z,3.97
2018-08-22T09:37:32.391Z,3.70
2018-08-22T09:39:59.725Z,4.57
2018-08-22T09:42:26.872Z,3.73
2018-08-22T09:44:54.138Z,4.40
2018-08-22T09:47:21.396Z,4.60
2018-08-22T09:49:48.616Z,3.90
2018-08-22T09:52:15.903Z,3.80
2018-08-22T09:54:55.084Z,3.90
2018-08-22T09:57:23.488Z,3.70
2018-08-22T09:59:50.917Z,4.03
2018-08-22T10:02:18.122Z,4.50
2018-08-22T10:04:45.331Z,4.20
2018-08-22T10:07:12.647Z,3.67
2018-08-22T10:09:39.785Z,4.40
2018-08-22T10:12:07.025Z,3.70
2018-08-22T10:14:34.289Z,3.73
2018-08-22T10:17:01.455Z,4.90
2018-08-22T10:19:28.784Z,3.87
2018-08-22T10:21:55.972Z,3.97
2018-08-22T10:24:23.239Z,4.13
2018-08-22T10:26:50.417Z,4.10
2018-08-22T10:29:17.579Z,4.00
2018-08-22T10:31:44.894Z,4.23
2018-08-22T10:34:12.149Z,3.60
2018-08-22T10:36:39.387Z,3.53
2018-08-22T10:39:07.344Z,3.80
2018-08-22T10:41:34.903Z,3.90
2018-08-22T10:44:02.172Z,3.70
2018-08-22T10:46:29.445Z,4.23
2018-08-22T10:48:56.635Z,4.23
2018-08-22T10:51:23.891Z,3.77
2018-08-22T10:53:51.673Z,4.37
2018-08-22T10:56:18.921Z,3.30
2018-08-22T10:58:46.084Z,3.60
2018-08-22T11:01:13.301Z,3.93
2018-08-22T11:03:40.512Z,3.50
2018-08-22T11:06:07.812Z,4.10
2018-08-22T11:08:35.052Z,3.60
2018-08-22T11:11:02.296Z,3.57
2018-08-22T11:13:29.624Z,3.33
2018-08-22T11:15:56.863Z,3.03
2018-08-22T11:18:24.031Z,3.60
2018-08-22T11:20:53.277Z,3.30
2018-08-22T11:23:32.807Z,3.73
2018-08-22T11:26:12.161Z,4.40
2018-08-22T11:28:50.948Z,3.97
2018-08-22T11:31:29.889Z,3.60
2018-08-22T11:34:08.819Z,3.70
2018-08-22T11:36:35.452Z,4.60
2018-08-22T11:39:04.366Z,3.30
2018-08-22T11:41:31.688Z,3.27
2018-08-22T11:43:58.976Z,3.43
2018-08-22T11:46:26.260Z,3.80
2018-08-22T11:48:53.518Z,3.97
2018-08-22T11:51:20.768Z,4.47
2018-08-22T11:53:47.985Z,4.20
2018-08-22T11:56:15.580Z,3.67
2018-08-22T11:58:42.849Z,3.40
2018-08-22T12:01:10.044Z,3.33
2018-08-22T12:03:37.310Z,2.90
2018-08-22T12:06:04.504Z,3.20
2018-08-22T12:08:31.753Z,3.57
2018-08-22T12:10:58.992Z,3.43
2018-08-22T12:13:26.268Z,3.17
2018-08-22T12:15:53.476Z,4.20
2018-08-22T12:18:20.727Z,3.70
2018-08-22T12:20:47.911Z,2.93
2018-08-22T12:23:15.296Z,3.60
2018-08-22T12:25:42.390Z,3.53
2018-08-22T12:28:09.616Z,3.40
2018-08-22T12:30:36.822Z,3.40
2018-08-22T12:33:04.209Z,3.80
2018-08-22T12:35:31.940Z,3.30
2018-08-22T12:37:59.184Z,2.70
2018-08-22T12:40:26.412Z,3.37
2018-08-22T12:42:53.620Z,3.67
2018-08-22T12:45:20.885Z,3.00
2018-08-22T12:47:48.101Z,3.80
2018-08-22T12:50:15.404Z,3.83
2018-08-22T12:52:42.607Z,2.83
2018-08-22T12:55:09.906Z,3.90
2018-08-22T12:57:37.153Z,3.77
2018-08-22T13:00:04.495Z,3.40
2018-08-22T13:02:31.674Z,3.57
2018-08-22T13:04:58.917Z,3.17
2018-08-22T13:07:26.232Z,3.50
2018-08-22T13:09:53.522Z,3.40
2018-08-22T13:12:21.380Z,3.10
2018-08-22T13:14:48.621Z,3.37
2018-08-22T13:17:15.865Z,3.30
2018-08-22T13:19:43.081Z,3.43
2018-08-22T13:22:10.344Z,2.80
2018-08-22T13:24:37.552Z,2.70
2018-08-22T13:27:04.748Z,3.17
2018-08-22T13:29:32.055Z,3.20
2018-08-22T13:31:59.241Z,3.10
2018-08-22T13:34:26.444Z,3.20
2018-08-22T13:36:53.656Z,3.20
2018-08-22T13:39:20.944Z,2.97
2018-08-22T13:41:48.155Z,2.90
2018-08-22T13:44:15.408Z,3.23
2018-08-22T13:46:42.618Z,2.90
2018-08-22T13:49:09.906Z,2.93
2018-08-22T13:51:37.128Z,3.10
2018-08-22T13:54:04.436Z,3.00
2018-08-22T13:56:31.676Z,2.90
2018-08-22T13:58:58.916Z,3.10
2018-08-22T14:01:26.229Z,2.53
2018-08-22T14:03:53.491Z,3.20
2018-08-22T14:06:20.672Z,2.43
2018-08-22T14:08:47.889Z,2.60
2018-08-22T14:11:15.094Z,2.90
2018-08-22T14:13:42.360Z,2.43
2018-08-22T14:16:09.705Z,3.03
2018-08-22T14:18:36.880Z,2.73
2018-08-22T14:21:04.168Z,2.67
2018-08-22T14:23:31.446Z,3.00
2018-08-22T14:25:58.640Z,2.80
2018-08-22T14:28:25.850Z,2.60
2018-08-22T14:30:53.072Z,2.70
2018-08-22T14:33:20.307Z,2.90
2018-08-22T14:35:47.537Z,2.67
2018-08-22T14:38:14.812Z,2.90
2018-08-22T14:40:42.156Z,2.30
2018-08-22T14:43:09.404Z,2.30
2018-08-22T14:45:36.621Z,2.20
2018-08-22T14:48:03.991Z,2.70
2018-08-22T14:50:31.176Z,2.87
2018-08-22T14:52:58.402Z,3.00
2018-08-22T14:55:25.636Z,2.70
2018-08-22T14:57:52.840Z,3.20
2018-08-22T15:00:20.041Z,2.93
2018-08-22T15:02:47.418Z,2.43
2018-08-22T15:05:14.470Z,2.50
2018-08-22T15:07:41.640Z,2.90
2018-08-22T15:10:12.240Z,2.83
2018-08-22T15:12:39.450Z,2.60
2018-08-22T15:15:06.641Z,2.70
2018-08-22T15:17:33.868Z,2.60
2018-08-22T15:20:01.072Z,2.90
2018-08-22T15:22:29.092Z,3.00
2018-08-22T15:24:56.281Z,2.63
2018-08-22T15:27:23.480Z,3.27
2018-08-22T15:29:50.702Z,2.80
2018-08-22T15:32:17.848Z,3.00
2018-08-22T15:34:50.008Z,2.57
2018-08-22T15:37:17.276Z,3.30
2018-08-22T15:39:44.487Z,2.90
2018-08-22T15:42:11.753Z,2.90
2018-08-22T15:44:39.003Z,2.57
2018-08-22T15:47:06.282Z,2.80
2018-08-22T15:49:34.088Z,2.50
2018-08-22T15:52:01.345Z,3.10
2018-08-22T15:54:28.622Z,3.00
2018-08-22T15:56:55.828Z,2.90
2018-08-22T15:59:23.041Z,3.10
2018-08-22T16:01:50.253Z,2.63
2018-08-22T16:04:17.527Z,3.50
2018-08-22T16:06:47.282Z,3.37
2018-08-22T16:09:20.109Z,2.83
2018-08-22T16:11:47.376Z,2.93
2018-08-22T16:14:14.576Z,2.80
2018-08-22T16:16:41.852Z,3.07
2018-08-22T16:19:09.056Z,2.73
2018-08-22T16:21:36.630Z,3.30
2018-08-22T16:24:04.053Z,3.20
2018-08-22T16:26:31.273Z,2.67
2018-08-22T16:29:00.445Z,2.83
2018-08-22T16:31:33.384Z,2.73
2018-08-22T16:34:00.629Z,3.60
2018-08-22T16:36:28.029Z,3.20
2018-08-22T16:38:55.248Z,3.23
2018-08-22T16:41:22.584Z,2.83
2018-08-22T16:43:49.796Z,3.17
2018-08-22T16:46:17.016Z,2.87
2018-08-22T16:48:47.397Z,3.30
2018-08-22T16:51:14.719Z,3.37
2018-08-22T16:53:46.912Z,2.83
2018-08-22T16:56:14.108Z,2.97
2018-08-22T16:58:41.345Z,2.80
2018-08-22T17:01:08.575Z,2.93
2018-08-22T17:03:35.825Z,3.30
2018-08-22T17:06:09.492Z,4.03
2018-08-22T17:08:37.554Z,3.47
2018-08-22T17:11:06.139Z,3.77
2018-08-22T17:13:40.216Z,3.20
2018-08-22T17:16:07.484Z,3.40
2018-08-22T17:18:34.725Z,7.90
2018-08-22T17:21:02.040Z,3.47
2018-08-22T17:23:29.276Z,3.27
2018-08-22T17:25:56.529Z,3.63
2018-08-22T17:28:39.542Z,3.03
2018-08-22T17:31:07.057Z,3.47
2018-08-22T17:33:37.299Z,3.60
2018-08-22T17:36:05.209Z,3.17
2018-08-22T17:38:32.485Z,4.17
2018-08-22T17:40:59.697Z,3.37
2018-08-22T17:43:26.856Z,4.30
2018-08-22T17:45:54.100Z,3.30
2018-08-22T17:48:21.532Z,4.00
2018-08-22T17:50:49.269Z,4.77
2018-08-22T17:53:16.511Z,3.30
2018-08-22T17:55:43.717Z,3.40
2018-08-22T17:58:10.941Z,3.40
2018-08-22T18:00:38.712Z,3.50
2018-08-22T18:03:05.985Z,3.10
2018-08-22T18:05:34.403Z,3.10
2018-08-22T18:08:03.900Z,3.60
2018-08-22T18:10:34.999Z,3.93
2018-08-22T18:13:19.088Z,3.43
2018-08-22T18:15:48.376Z,3.70
2018-08-22T18:18:18.336Z,3.70
2018-08-22T18:20:46.609Z,4.10
2018-08-22T18:23:14.341Z,4.87
2018-08-22T18:25:47.312Z,4.40
2018-08-22T18:28:14.842Z,4.40
2018-08-22T18:30:42.028Z,4.47
2018-08-22T18:33:09.336Z,3.60
2018-08-22T18:35:39.213Z,3.70
2018-08-22T18:38:06.436Z,3.80
2018-08-22T18:40:33.705Z,3.90
2018-08-22T18:43:02.912Z,4.10
2018-08-22T18:45:30.168Z,3.83
2018-08-22T18:47:58.360Z,4.03
2018-08-22T18:50:25.528Z,3.80
2018-08-22T18:53:00.636Z,4.60
2018-08-22T18:55:30.158Z,4.00
2018-08-22T18:57:58.668Z,4.63
2018-08-22T19:00:25.855Z,4.70
2018-08-22T19:02:54.509Z,4.10
2018-08-22T19:05:27.452Z,3.70
2018-08-22T19:07:57.259Z,4.33
2018-08-22T19:10:26.744Z,4.30
2018-08-22T19:13:00.077Z,4.00
2018-08-22T19:15:27.288Z,3.80
2018-08-22T19:17:54.516Z,3.67
2018-08-22T19:20:23.053Z,4.30
2018-08-22T19:22:50.393Z,4.03
2018-08-22T19:25:17.618Z,3.77
2018-08-22T19:27:44.825Z,3.47
2018-08-22T19:30:12.040Z,3.60
2018-08-22T19:32:39.232Z,3.33
2018-08-22T19:35:06.525Z,3.60
2018-08-22T19:37:33.693Z,3.20
2018-08-22T19:40:06.882Z,3.40
2018-08-22T19:42:35.320Z,5.07
2018-08-22T19:45:04.924Z,4.33
2018-08-22T19:47:32.136Z,3.10
2018-08-22T19:49:59.668Z,3.97
2018-08-22T19:52:27.052Z,5.07
2018-08-22T19:54:54.236Z,3.77
2018-08-22T19:57:40.216Z,3.17
2018-08-22T20:00:08.862Z,3.63
2018-08-22T20:02:36.505Z,3.67
2018-08-22T20:05:04.045Z,3.70
2018-08-22T20:07:31.308Z,2.80
2018-08-22T20:09:58.528Z,3.30
2018-08-22T20:12:37.216Z,3.83
2018-08-22T20:15:04.450Z,3.17
2018-08-22T20:17:31.652Z,3.40
2018-08-22T20:19:58.913Z,3.70
2018-08-22T20:22:29.916Z,3.67
2018-08-22T20:24:58.804Z,3.60
2018-08-22T20:27:25.991Z,3.70
2018-08-22T20:29:57.984Z,3.03
2018-08-22T20:32:27.752Z,3.13
2018-08-22T20:34:55.007Z,3.40
2018-08-22T20:37:22.212Z,7.00
2018-08-22T20:39:54.020Z,8.77
2018-08-22T20:42:21.313Z,8.77
2018-08-22T20:44:48.486Z,4.10
2018-08-22T20:47:15.667Z,4.20
2018-08-22T20:49:42.984Z,3.27
2018-08-22T20:52:10.220Z,4.30
2018-08-22T20:54:37.368Z,4.47
2018-08-22T20:57:04.657Z,3.50
2018-08-22T20:59:31.879Z,3.20
2018-08-22T21:02:02.243Z,2.77
2018-08-22T21:04:29.417Z,3.13
2018-08-22T21:06:56.628Z,2.90
2018-08-22T21:09:23.848Z,3.00
2018-08-22T21:11:55.148Z,3.30
2018-08-22T21:14:22.465Z,2.97
2018-08-22T21:16:49.628Z,3.50
2018-08-22T21:19:16.765Z,3.30
2018-08-22T21:21:44.085Z,3.40
2018-08-22T21:24:11.293Z,3.50
2018-08-22T21:26:40.066Z,3.80
2018-08-22T21:29:07.226Z,3.67
2018-08-22T21:31:34.913Z,3.57
2018-08-22T21:34:08.492Z,4.40
2018-08-22T21:36:36.706Z,4.33
2018-08-22T21:39:08.341Z,4.00
2018-08-22T21:41:35.634Z,4.10
2018-08-22T21:44:02.873Z,4.23
2018-08-22T21:46:30.108Z,4.73
2018-08-22T21:49:01.905Z,3.77
2018-08-22T21:51:29.214Z,4.23
2018-08-22T21:53:56.444Z,4.90
2018-08-22T21:56:23.649Z,5.00
2018-08-22T21:58:50.864Z,5.00
2018-08-22T22:01:18.133Z,4.90
2018-08-22T22:03:45.348Z,4.90
2018-08-22T22:06:12.563Z,4.40
2018-08-22T22:08:42.838Z,5.33
2018-08-22T22:11:10.024Z,5.30
2018-08-22T22:13:37.228Z,4.60
2018-08-22T22:16:05.112Z,5.63
2018-08-22T22:18:33.263Z,4.87
2018-08-22T22:21:10.011Z,5.80
2018-08-22T22:23:43.094Z,4.93
2018-08-22T22:26:10.564Z,4.73
2018-08-22T22:28:38.553Z,5.30
2018-08-22T22:31:08.377Z,4.80
2018-08-22T22:33:35.624Z,5.20
2018-08-22T22:36:02.860Z,6.10
2018-08-22T22:38:30.085Z,5.77
2018-08-22T22:40:57.296Z,5.20
2018-08-22T22:43:24.516Z,5.47
2018-08-22T22:45:51.736Z,4.83
2018-08-22T22:48:32.397Z,5.17
2018-08-22T22:50:59.760Z,5.00
2018-08-22T22:53:27.216Z,5.47
2018-08-22T22:55:54.493Z,5.50
2018-08-22T22:58:21.641Z,5.73
2018-08-22T23:00:48.863Z,5.40
2018-08-22T23:03:16.017Z,5.07
2018-08-22T23:05:43.181Z,5.40
2018-08-22T23:08:10.376Z,4.90
2018-08-22T23:10:37.633Z,6.10
2018-08-22T23:13:04.808Z,5.10
2018-08-22T23:15:32.065Z,5.90
2018-08-22T23:18:00.507Z,5.97
2018-08-22T23:20:31.363Z,5.70
2018-08-22T23:22:58.560Z,14.90
2018-08-22T23:25:26.113Z,9.57
2018-08-22T23:27:53.304Z,8.50
2018-08-22T23:30:24.143Z,7.13
2018-08-22T23:32:51.428Z,9.40
2018-08-22T23:35:22.685Z,5.87
2018-08-22T23:37:53.032Z,6.17
2018-08-22T23:40:21.507Z,7.23
2018-08-22T23:42:48.729Z,8.27
2018-08-22T23:45:15.901Z,8.23
2018-08-22T23:47:43.157Z,13.53
2018-08-22T23:50:10.364Z,13.03
2018-08-22T23:52:43.356Z,15.60
2018-08-22T23:55:10.638Z,10.90
2018-08-22T23:57:37.853Z,6.40
